Time;durP1;ratioP1;P1;durP2;ratioP2;P2;SDS_P1;SDS_P2;PMS_P1;PMS_P2;Temp;Humidity;BMP_temperature;BMP_pressure;BME280_temperature;BME280_humidity;BME280_pressure;Samples;Min_cycle;Max_cycle;Signal;HPM_P1;HPM_P2
2022/03/01 00:00:16;;;;;;;3.50;3.20;;;;;;;13.97;52.81;102765.84;6176209;23;20009;-57
2022/03/01 00:02:43;;;;;;;4.07;3.53;;;;;;;13.98;52.78;102775.63;6176002;23;20095;-58
2022/03/01 00:05:09;;;;;;;3.22;2.92;;;;;;;13.98;52.83;102769.44;6176258;23;20278;-57
2022/03/01 00:07:34;;;;;;;4.65;3.78;;;;;;;13.97;52.63;102771.22;6175663;23;20419;-57
2022/03/01 00:10:00;;;;;;;4.63;3.75;;;;;;;13.98;52.70;102774.78;6175875;23;20020;-57
2022/03/01 00:12:25;;;;;;;5.32;4.07;;;;;;;13.97;52.42;102778.38;6176309;23;20005;-56
2022/03/01 00:14:50;;;;;;;3.97;3.22;;;;;;;13.97;52.87;102776.56;6176651;23;20405;-58
2022/03/01 00:17:16;;;;;;;4.07;3.17;;;;;;;13.95;52.67;102773.09;6175766;23;20309;-57
2022/03/01 00:19:41;;;;;;;4.35;3.85;;;;;;;13.97;52.63;102775.72;6175277;23;20325;-58
2022/03/01 00:22:07;;;;;;;3.92;3.10;;;;;;;13.95;52.42;102773.09;6176093;23;20008;-57
2022/03/01 00:24:32;;;;;;;4.60;3.70;;;;;;;13.95;52.89;102766.88;6175045;23;20080;-58
2022/03/01 00:26:57;;;;;;;4.38;3.70;;;;;;;13.95;52.73;102769.56;6176163;23;20005;-58
2022/03/01 00:29:23;;;;;;;5.85;3.67;;;;;;;13.94;52.54;102766.03;6175081;23;20079;-58
2022/03/01 00:31:48;;;;;;;6.00;3.83;;;;;;;13.94;52.51;102771.38;6175621;23;20089;-58
2022/03/01 00:34:14;;;;;;;5.05;3.40;;;;;;;13.93;52.29;102772.31;6175001;23;20009;-56
2022/03/01 00:36:39;;;;;;;5.20;3.85;;;;;;;13.93;52.37;102772.31;6175527;23;20016;-57
2022/03/01 00:39:06;;;;;;;4.50;3.55;;;;;;;13.92;52.27;102765.22;6175283;23;20001;-58
2022/03/01 00:41:31;;;;;;;4.10;3.67;;;;;;;13.92;52.24;102765.22;6174487;23;20460;-57
2022/03/01 00:43:56;;;;;;;3.88;3.28;;;;;;;13.92;52.37;102765.22;6175209;23;20064;-57
2022/03/01 00:46:26;;;;;;;4.00;3.38;;;;;;;13.91;52.47;102768.84;6175472;23;20411;-55
2022/03/01 00:48:52;;;;;;;5.78;3.90;;;;;;;13.91;52.48;102768.84;6175496;23;20313;-57
2022/03/01 00:51:17;;;;;;;5.35;4.20;;;;;;;13.91;52.53;102770.66;6175298;23;20432;-58
2022/03/01 00:53:42;;;;;;;4.07;3.10;;;;;;;13.91;52.72;102759.94;6175494;23;20936;-57
2022/03/01 00:56:08;;;;;;;3.70;3.38;;;;;;;13.92;52.23;102767.00;6175212;23;20275;-57
2022/03/01 00:58:33;;;;;;;3.78;3.33;;;;;;;13.92;52.41;102758.97;6175281;23;20005;-57
2022/03/01 01:00:58;;;;;;;4.45;3.47;;;;;;;13.91;52.12;102768.84;6175225;23;20148;-57
2022/03/01 01:03:24;;;;;;;5.22;3.70;;;;;;;13.91;51.92;102774.19;6175052;23;20013;-56
2022/03/01 01:05:49;;;;;;;5.30;3.97;;;;;;;13.90;52.13;102767.09;6175924;23;20012;-57
2022/03/01 01:08:15;;;;;;;4.47;3.35;;;;;;;13.89;51.93;102776.94;6175395;23;20009;-57
2022/03/01 01:10:40;;;;;;;5.53;4.00;;;;;;;13.88;52.20;102769.84;6175372;23;20016;-57
2022/03/01 01:13:06;;;;;;;4.10;3.22;;;;;;;13.88;52.08;102760.97;6176582;23;20012;-58
2022/03/01 01:15:32;;;;;;;4.55;3.80;;;;;;;13.88;51.96;102769.00;6177475;23;20361;-57
2022/03/01 01:17:57;;;;;;;4.20;3.50;;;;;;;13.87;52.31;102770.78;6176740;23;20088;-57
2022/03/01 01:20:22;;;;;;;3.83;3.42;;;;;;;13.86;52.31;102771.75;6177765;23;20039;-58
2022/03/01 01:22:48;;;;;;;5.47;3.95;;;;;;;13.87;51.81;102769.91;6176322;23;20442;-58
2022/03/01 01:25:16;;;;;;;4.45;3.60;;;;;;;13.85;51.81;102763.78;6176125;23;20478;-58
2022/03/01 01:27:44;;;;;;;4.68;3.72;;;;;;;13.84;51.97;102770.06;6176347;23;20004;-57
2022/03/01 01:30:11;;;;;;;4.85;3.30;;;;;;;13.84;52.04;102767.38;6176439;23;20005;-58
2022/03/01 01:32:37;;;;;;;3.85;3.35;;;;;;;13.84;52.00;102764.69;6175762;23;20009;-58
2022/03/01 01:35:04;;;;;;;3.40;3.10;;;;;;;13.83;51.93;102765.66;6176579;23;20089;-58
2022/03/01 01:37:30;;;;;;;4.72;3.85;;;;;;;13.82;51.64;102764.78;6175542;23;20028;-58
2022/03/01 01:39:55;;;;;;;4.50;3.47;;;;;;;13.83;51.64;102765.66;6175850;23;20055;-58
2022/03/01 01:42:21;;;;;;;4.97;4.03;;;;;;;13.83;51.70;102769.19;6176620;23;20025;-58
2022/03/01 01:44:46;;;;;;;3.85;3.47;;;;;;;13.83;51.62;102769.19;6176424;23;20039;-57
2022/03/01 01:47:12;;;;;;;5.50;3.80;;;;;;;13.82;51.51;102759.44;6176046;23;20033;-57
2022/03/01 01:49:37;;;;;;;5.13;3.63;;;;;;;13.82;51.96;102770.16;6175881;23;20405;-57
2022/03/01 01:52:03;;;;;;;3.35;3.05;;;;;;;13.82;51.84;102761.22;6175629;23;20078;-57
2022/03/01 01:54:29;;;;;;;6.13;3.60;;;;;;;13.82;51.84;102755.88;6176036;23;20082;-57
2022/03/01 01:56:54;;;;;;;4.93;3.70;;;;;;;13.81;51.75;102759.50;6176103;23;20595;-57
2022/03/01 01:59:19;;;;;;;4.13;3.33;;;;;;;13.82;51.49;102755.88;6176597;23;20020;-57
2022/03/01 02:01:45;;;;;;;3.95;3.58;;;;;;;13.82;51.46;102758.53;6175483;23;20067;-57
2022/03/01 02:04:10;;;;;;;4.25;3.45;;;;;;;13.80;51.38;102755.97;6175917;23;20325;-55
2022/03/01 02:06:37;;;;;;;4.28;3.50;;;;;;;13.82;51.31;102758.53;6175233;23;20084;-56
2022/03/01 02:09:03;;;;;;;4.07;3.22;;;;;;;13.80;51.61;102752.41;6175934;23;20009;-57
2022/03/01 02:11:29;;;;;;;4.53;3.63;;;;;;;13.80;51.52;102753.28;6175882;23;20009;-56
2022/03/01 02:13:54;;;;;;;4.63;3.63;;;;;;;13.80;51.53;102747.94;6175372;23;20020;-57
2022/03/01 02:16:19;;;;;;;4.95;3.55;;;;;;;13.81;51.60;102741.63;6176175;23;20019;-56
2022/03/01 02:18:45;;;;;;;4.78;3.67;;;;;;;13.79;51.52;102750.69;6179007;23;20005;-57
2022/03/01 02:21:10;;;;;;;4.05;3.25;;;;;;;13.79;51.72;102750.69;6182874;23;20009;-57
2022/03/01 02:23:36;;;;;;;3.85;3.05;;;;;;;13.79;51.48;102756.03;6182283;23;20282;-57
2022/03/01 02:26:01;;;;;;;5.25;4.00;;;;;;;13.79;51.55;102756.03;6182682;23;20029;-57
2022/03/01 02:28:26;;;;;;;4.57;3.63;;;;;;;13.79;51.30;102761.38;6179181;23;20009;-58
2022/03/01 02:30:52;;;;;;;4.43;3.28;;;;;;;13.78;51.52;102755.13;6176157;23;20005;-58
2022/03/01 02:33:17;;;;;;;4.25;3.20;;;;;;;13.78;51.66;102759.63;6175413;23;20032;-57
2022/03/01 02:35:43;;;;;;;5.00;4.03;;;;;;;13.77;50.91;102755.25;6175720;23;20017;-58
2022/03/01 02:38:08;;;;;;;3.85;3.45;;;;;;;13.77;51.47;102755.25;6175122;23;20005;-58
2022/03/01 02:40:33;;;;;;;3.60;3.30;;;;;;;13.77;51.01;102747.22;6175895;23;20008;-58
2022/03/01 02:42:59;;;;;;;4.32;3.33;;;;;;;13.77;51.27;102749.88;6174513;23;20414;-57
2022/03/01 02:45:24;;;;;;;3.60;3.28;;;;;;;13.76;51.21;102746.31;6175011;23;20412;-56
2022/03/01 02:47:50;;;;;;;7.03;3.90;;;;;;;13.76;51.25;102745.47;6174912;23;20538;-56
2022/03/01 02:50:16;;;;;;;3.75;3.22;;;;;;;13.76;51.08;102734.75;6175729;23;20364;-56
2022/03/01 02:52:42;;;;;;;3.58;3.17;;;;;;;13.76;51.39;102734.75;6174997;23;20001;-56
2022/03/01 02:55:09;;;;;;;4.30;3.70;;;;;;;13.75;51.24;102744.59;6175594;23;20005;-57
2022/03/01 02:57:34;;;;;;;5.28;3.80;;;;;;;13.75;50.96;102730.34;6175403;23;20025;-56
2022/03/01 02:59:59;;;;;;;4.28;3.80;;;;;;;13.74;51.14;102726.78;6175414;23;20369;-56
2022/03/01 03:02:25;;;;;;;5.63;3.40;;;;;;;13.74;51.06;102725.94;6175023;23;20027;-57
2022/03/01 03:04:50;;;;;;;4.47;3.53;;;;;;;13.75;51.37;102730.34;6176345;23;20019;-57
2022/03/01 03:07:16;;;;;;;4.80;3.45;;;;;;;13.74;50.94;102728.59;6175143;23;20079;-56
2022/03/01 03:09:42;;;;;;;6.38;3.42;;;;;;;13.73;51.39;102726.84;6174575;23;20318;-56
2022/03/01 03:12:10;;;;;;;4.50;3.58;;;;;;;13.75;51.26;102730.34;6174663;23;20011;-56
2022/03/01 03:14:36;;;;;;;4.22;3.20;;;;;;;13.74;50.82;102731.28;6174814;23;20020;-56
2022/03/01 03:17:01;;;;;;;5.00;3.40;;;;;;;13.74;50.96;102731.28;6174060;23;21080;-57
2022/03/01 03:19:27;;;;;;;4.80;3.88;;;;;;;13.74;50.77;102725.94;6175643;23;20013;-57
2022/03/01 03:21:53;;;;;;;4.43;3.80;;;;;;;13.74;50.81;102726.78;6175696;23;20799;-56
2022/03/01 03:24:18;;;;;;;4.53;3.50;;;;;;;13.74;50.84;102731.28;6175676;23;20067;-56
2022/03/01 03:26:44;;;;;;;3.90;3.25;;;;;;;13.74;51.24;102731.28;6174707;23;20293;-57
2022/03/01 03:29:10;;;;;;;5.47;3.55;;;;;;;13.73;51.01;102732.19;6174786;23;20005;-54
2022/03/01 03:31:37;;;;;;;4.53;3.45;;;;;;;13.73;51.18;102726.84;6174859;23;20008;-56
2022/03/01 03:34:04;;;;;;;4.47;2.97;;;;;;;13.71;50.70;102726.06;6175415;23;20091;-56
2022/03/01 03:36:30;;;;;;;4.55;3.70;;;;;;;13.71;50.72;102724.28;6175009;23;20016;-57
2022/03/01 03:38:55;;;;;;;4.57;3.60;;;;;;;13.71;50.74;102726.94;6173049;23;20092;-56
2022/03/01 03:41:21;;;;;;;4.93;3.65;;;;;;;13.71;50.95;102720.69;6174868;23;20039;-57
2022/03/01 03:43:46;;;;;;;3.40;2.92;;;;;;;13.71;50.77;102724.28;6175517;23;20005;-57
2022/03/01 03:46:12;;;;;;;3.80;3.10;;;;;;;13.70;50.55;102719.84;6174835;23;20661;-57
2022/03/01 03:48:37;;;;;;;4.85;3.55;;;;;;;13.70;51.05;102725.19;6174738;23;20326;-57
2022/03/01 03:51:02;;;;;;;3.78;3.25;;;;;;;13.71;50.57;102720.69;6174312;23;20075;-56
2022/03/01 03:53:28;;;;;;;4.18;3.55;;;;;;;13.70;50.76;102722.53;6174871;23;20013;-57
2022/03/01 03:55:53;;;;;;;4.70;3.67;;;;;;;13.69;50.50;102721.66;6174751;23;20313;-59
2022/03/01 03:58:19;;;;;;;4.30;3.38;;;;;;;13.69;50.51;102718.13;6175564;23;20019;-58
2022/03/01 04:00:44;;;;;;;4.38;3.42;;;;;;;13.68;50.56;102719.91;6174776;23;20004;-57
2022/03/01 04:03:10;;;;;;;3.83;3.33;;;;;;;13.68;50.90;102727.06;6174101;23;20098;-58
2022/03/01 04:05:35;;;;;;;4.75;3.65;;;;;;;13.68;50.60;102727.94;6174934;23;20001;-57
2022/03/01 04:08:01;;;;;;;4.25;3.47;;;;;;;13.69;50.55;102728.84;6174082;23;20420;-57
2022/03/01 04:10:26;;;;;;;4.90;3.78;;;;;;;13.67;50.92;102723.53;6174752;23;20009;-58
2022/03/01 04:12:52;;;;;;;5.25;3.90;;;;;;;13.67;50.33;102726.22;6174533;23;20004;-57
2022/03/01 04:15:17;;;;;;;4.55;3.67;;;;;;;13.66;50.68;102716.44;6174867;23;20037;-56
2022/03/01 04:17:43;;;;;;;3.67;3.38;;;;;;;13.65;50.57;102722.75;6174095;23;20016;-56
2022/03/01 04:20:10;;;;;;;5.40;3.85;;;;;;;13.67;50.71;102731.56;6174861;23;20005;-56
2022/03/01 04:22:35;;;;;;;4.88;3.70;;;;;;;13.65;50.18;102722.75;6174961;23;20012;-57
2022/03/01 04:25:00;;;;;;;6.50;4.20;;;;;;;13.65;50.37;102728.09;6174332;23;20017;-56
2022/03/01 04:27:26;;;;;;;3.78;3.40;;;;;;;13.67;50.46;102733.38;6173959;23;20001;-56
2022/03/01 04:29:52;;;;;;;4.57;3.47;;;;;;;13.65;50.44;102732.56;6175235;23;20009;-57
2022/03/01 04:32:17;;;;;;;4.82;3.80;;;;;;;13.65;50.27;102735.25;6174738;23;20068;-56
2022/03/01 04:34:43;;;;;;;4.95;3.55;;;;;;;13.65;50.54;102732.56;6174344;23;20104;-56
2022/03/01 04:37:09;;;;;;;3.72;3.35;;;;;;;13.64;50.29;102737.06;6174678;23;20037;-56
2022/03/01 04:39:35;;;;;;;4.68;3.78;;;;;;;13.65;50.74;102737.91;6173724;23;20092;-56
2022/03/01 04:42:01;;;;;;;4.45;3.90;;;;;;;13.63;50.38;102729.97;6174052;23;20025;-56
2022/03/01 04:44:26;;;;;;;4.85;4.15;;;;;;;13.63;49.99;102731.78;6174305;23;20024;-54
2022/03/01 04:46:52;;;;;;;4.72;3.40;;;;;;;13.63;50.32;102729.97;6175214;23;20067;-55
2022/03/01 04:49:18;;;;;;;4.03;3.33;;;;;;;13.63;50.06;102727.31;6176986;23;20432;-57
2022/03/01 04:51:43;;;;;;;4.22;3.40;;;;;;;13.63;50.16;102729.09;6176414;23;20012;-56
2022/03/01 04:54:09;;;;;;;5.45;3.70;;;;;;;13.62;50.46;102733.59;6176290;23;20008;-56
2022/03/01 04:56:34;;;;;;;4.25;3.78;;;;;;;13.61;50.40;102723.84;6176265;23;20013;-55
2022/03/01 04:58:59;;;;;;;4.38;3.90;;;;;;;13.62;50.40;102728.22;6176496;23;20360;-56
2022/03/01 05:01:25;;;;;;;4.32;3.50;;;;;;;13.63;50.08;102721.06;6176488;23;20019;-55
2022/03/01 05:03:50;;;;;;;5.70;3.95;;;;;;;13.63;50.39;102718.38;6177343;23;20009;-56
2022/03/01 05:06:15;;;;;;;4.38;3.45;;;;;;;13.63;49.95;102719.28;6176043;23;20008;-55
2022/03/01 05:08:41;;;;;;;3.88;3.47;;;;;;;13.63;50.27;102716.59;6176574;23;20040;-56
2022/03/01 05:11:06;;;;;;;4.10;3.63;;;;;;;13.64;50.26;102717.47;6176251;23;20016;-56
2022/03/01 05:13:32;;;;;;;6.03;4.00;;;;;;;13.63;50.18;102719.28;6176103;23;20016;-56
2022/03/01 05:15:57;;;;;;;4.63;3.63;;;;;;;13.62;49.93;102720.19;6175935;23;20019;-56
2022/03/01 05:18:22;;;;;;;3.78;3.22;;;;;;;13.62;50.10;102728.22;6176036;23;20401;-56
2022/03/01 05:20:48;;;;;;;4.80;3.70;;;;;;;13.60;50.29;102719.41;6176554;23;20009;-56
2022/03/01 05:23:14;;;;;;;4.22;3.55;;;;;;;13.61;50.28;102715.81;6175922;23;20012;-56
2022/03/01 05:25:40;;;;;;;4.25;3.45;;;;;;;13.61;50.03;102721.16;6175419;23;20091;-55
2022/03/01 05:28:05;;;;;;;3.88;3.33;;;;;;;13.61;50.03;102712.25;6175598;23;20012;-56
2022/03/01 05:30:31;;;;;;;5.13;3.45;;;;;;;13.60;49.93;102713.19;6175570;23;20089;-56
2022/03/01 05:32:56;;;;;;;3.45;3.15;;;;;;;13.60;50.09;102703.34;6175304;23;20467;-55
2022/03/01 05:35:29;;;;;;;4.97;3.63;;;;;;;13.60;50.24;102700.69;6175957;23;20004;-56
2022/03/01 05:37:55;;;;;;;4.20;3.67;;;;;;;13.61;49.84;102699.75;6175076;23;20001;-57
2022/03/01 05:40:22;;;;;;;4.97;3.65;;;;;;;13.61;49.92;102693.50;6176725;23;20009;-57
2022/03/01 05:42:48;;;;;;;3.83;3.53;;;;;;;13.59;49.97;102688.22;6176088;23;20013;-54
2022/03/01 05:45:15;;;;;;;4.93;3.33;;;;;;;13.60;49.84;102684.63;6175211;23;20013;-55
2022/03/01 05:47:43;;;;;;;4.63;3.85;;;;;;;13.60;49.90;102692.66;6175592;23;20010;-57
2022/03/01 05:50:09;;;;;;;4.63;4.07;;;;;;;13.59;49.95;102685.53;6175868;23;20315;-56
2022/03/01 05:52:35;;;;;;;4.28;3.40;;;;;;;13.59;50.29;102690.88;6175032;23;20009;-55
2022/03/01 05:55:00;;;;;;;5.43;3.72;;;;;;;13.58;50.26;102691.84;6175764;23;20009;-56
2022/03/01 05:57:28;;;;;;;5.07;3.45;;;;;;;13.60;50.36;102697.13;6174756;23;20001;-56
2022/03/01 05:59:54;;;;;;;4.40;3.60;;;;;;;13.59;49.69;102701.59;6173694;23;20017;-58
2022/03/01 06:02:19;;;;;;;4.70;3.67;;;;;;;13.59;50.04;102700.75;6175594;23;20036;-57
2022/03/01 06:04:45;;;;;;;5.00;3.70;;;;;;;13.58;49.75;102699.03;6174346;23;20013;-56
2022/03/01 06:07:10;;;;;;;3.58;3.05;;;;;;;13.57;50.12;102687.44;6175554;23;20059;-57
2022/03/01 06:09:36;;;;;;;4.88;4.10;;;;;;;13.57;49.48;102695.44;6174148;23;20009;-57
2022/03/01 06:12:01;;;;;;;4.75;4.10;;;;;;;13.57;49.71;102692.78;6175243;23;20409;-56
2022/03/01 06:14:27;;;;;;;5.20;3.65;;;;;;;13.57;49.91;102699.94;6174870;23;20294;-57
2022/03/01 06:16:52;;;;;;;4.35;3.70;;;;;;;13.56;49.61;102691.06;6175180;23;20013;-57
2022/03/01 06:19:18;;;;;;;4.63;3.50;;;;;;;13.57;49.97;102686.56;6176028;23;20005;-56
2022/03/01 06:21:43;;;;;;;4.10;3.60;;;;;;;13.56;49.93;102693.72;6175302;23;20009;-57
2022/03/01 06:24:09;;;;;;;4.50;3.78;;;;;;;13.55;49.97;102694.66;6175514;23;20009;-56
2022/03/01 06:26:34;;;;;;;3.90;3.50;;;;;;;13.56;50.34;102692.88;6174886;23;20071;-58
2022/03/01 06:29:00;;;;;;;7.25;5.28;;;;;;;13.57;51.47;102687.44;6174222;23;20033;-57
2022/03/01 06:31:25;;;;;;;5.85;4.60;;;;;;;13.54;51.41;102681.38;6174197;23;20064;-57
2022/03/01 06:33:50;;;;;;;7.20;5.03;;;;;;;13.52;51.76;102688.56;6175241;23;20063;-57
2022/03/01 06:36:16;;;;;;;9.07;5.72;;;;;;;13.50;51.74;102707.41;6176103;23;20009;-57
2022/03/01 06:38:42;;;;;;;7.30;5.70;;;;;;;13.46;51.90;102711.13;6174627;23;20012;-56
2022/03/01 06:41:07;;;;;;;6.53;4.93;;;;;;;13.44;52.51;102707.66;6175115;23;20432;-57
2022/03/01 06:43:33;;;;;;;7.72;5.13;;;;;;;13.40;52.26;102708.75;6175235;23;20436;-56
2022/03/01 06:45:58;;;;;;;5.25;4.22;;;;;;;13.39;52.33;102715.06;6174535;23;20309;-57
2022/03/01 06:48:23;;;;;;;11.48;5.30;;;;;;;13.37;52.94;102714.25;6174020;23;20020;-55
2022/03/01 06:50:49;;;;;;;6.90;5.13;;;;;;;13.35;52.32;102719.69;6175118;23;20294;-55
2022/03/01 06:53:14;;;;;;;7.38;5.05;;;;;;;13.34;52.88;102720.59;6174696;23;20016;-56
2022/03/01 06:55:43;;;;;;;9.30;5.40;;;;;;;13.34;52.91;102722.41;6173707;23;20084;-56
2022/03/01 06:58:10;;;;;;;6.80;4.78;;;;;;;13.32;52.61;102725.16;6174208;23;20043;-56
2022/03/01 07:00:35;;;;;;;6.90;4.75;;;;;;;13.30;52.74;102730.56;6174753;23;20324;-55
2022/03/01 07:03:01;;;;;;;8.00;4.97;;;;;;;13.30;52.78;102725.22;6174269;23;20080;-56
2022/03/01 07:05:26;;;;;;;7.32;4.75;;;;;;;13.30;53.10;102732.38;6174984;23;20015;-55
2022/03/01 07:07:51;;;;;;;6.00;5.00;;;;;;;13.29;52.74;102738.66;6174793;23;20009;-54
2022/03/01 07:10:17;;;;;;;8.73;5.38;;;;;;;13.28;52.98;102740.44;6175905;23;20084;-57
2022/03/01 07:12:44;;;;;;;9.13;5.70;;;;;;;13.29;52.82;102744.00;6174930;23;20408;-56
2022/03/01 07:15:11;;;;;;;8.63;4.97;;;;;;;13.29;52.61;102744.00;6174553;23;20393;-55
2022/03/01 07:17:36;;;;;;;7.03;4.93;;;;;;;13.28;52.68;102743.13;6174688;23;20012;-56
2022/03/01 07:20:04;;;;;;;7.30;5.60;;;;;;;13.27;52.73;102741.41;6174976;23;20360;-55
2022/03/01 07:22:30;;;;;;;6.95;5.20;;;;;;;13.27;52.90;102729.84;6174565;23;20091;-56
2022/03/01 07:24:55;;;;;;;7.93;5.68;;;;;;;13.27;52.84;102728.03;6175050;23;20040;-55
2022/03/01 07:27:20;;;;;;;7.10;5.63;;;;;;;13.27;52.66;102738.72;6175873;23;20313;-56
2022/03/01 07:29:46;;;;;;;9.13;5.60;;;;;;;13.27;52.37;102744.06;6175094;23;20431;-57
2022/03/01 07:32:11;;;;;;;7.30;5.57;;;;;;;13.26;52.66;102736.97;6148259;23;20056;-56
2022/03/01 07:34:37;;;;;;;6.68;5.30;;;;;;;13.26;52.37;102745.00;6174083;23;20018;-56
2022/03/01 07:37:04;;;;;;;7.40;5.47;;;;;;;13.26;52.77;102741.47;6175207;23;20015;-57
2022/03/01 07:39:29;;;;;;;6.25;5.13;;;;;;;13.26;52.64;102750.34;6174674;23;20009;-56
2022/03/01 07:41:55;;;;;;;7.47;5.50;;;;;;;13.27;52.71;102754.78;6174176;23;20096;-57
2022/03/01 07:44:20;;;;;;;7.13;5.90;;;;;;;13.26;52.62;102758.38;6175617;23;20465;-55
2022/03/01 07:46:46;;;;;;;7.60;5.45;;;;;;;13.27;52.51;102765.47;6174680;23;20005;-56
2022/03/01 07:49:11;;;;;;;7.03;5.43;;;;;;;13.27;52.19;102759.25;6174488;23;20075;-56
2022/03/01 07:51:37;;;;;;;7.65;5.03;;;;;;;13.25;52.71;102751.31;6174542;23;20013;-55
2022/03/01 07:54:03;;;;;;;7.63;5.63;;;;;;;13.26;52.24;102761.03;6174773;23;20009;-55
2022/03/01 07:56:28;;;;;;;6.85;4.88;;;;;;;13.25;52.42;102745.94;6174228;23;20019;-56
2022/03/01 07:58:54;;;;;;;11.07;5.55;;;;;;;13.26;52.39;102749.47;6174873;23;20013;-55
2022/03/01 08:01:20;;;;;;;7.25;5.40;;;;;;;13.24;52.41;102744.19;6174933;23;20092;-56
2022/03/01 08:03:46;;;;;;;6.00;5.00;;;;;;;13.24;51.95;102746.88;6174388;23;20644;-55
2022/03/01 08:06:11;;;;;;;7.47;5.65;;;;;;;13.24;52.10;102746.88;6174733;23;20024;-57
2022/03/01 08:08:36;;;;;;;7.22;5.68;;;;;;;13.23;51.80;102750.50;6174553;23;20544;-56
2022/03/01 08:11:02;;;;;;;9.73;5.60;;;;;;;13.23;52.27;102753.19;6174319;23;20435;-57
2022/03/01 08:13:29;;;;;;;8.68;6.10;;;;;;;13.22;52.40;102751.44;6173949;23;20334;-57
2022/03/01 08:15:54;;;;;;;6.78;5.25;;;;;;;13.23;52.19;102762.97;6174834;23;20013;-57
2022/03/01 08:18:19;;;;;;;7.85;5.80;;;;;;;13.23;52.26;102755.84;6174822;23;20008;-56
2022/03/01 08:20:45;;;;;;;9.80;6.13;;;;;;;13.24;51.84;102749.56;6174584;23;20005;-56
2022/03/01 08:23:10;;;;;;;8.80;5.70;;;;;;;13.24;52.18;102760.25;6173730;23;20024;-56
2022/03/01 08:25:36;;;;;;;6.65;5.32;;;;;;;13.24;51.95;102756.72;6174518;23;20000;-56
2022/03/01 08:28:01;;;;;;;7.40;5.80;;;;;;;13.24;51.89;102762.91;6174068;23;20009;-55
2022/03/01 08:30:28;;;;;;;7.70;5.53;;;;;;;13.24;52.10;102768.28;6174633;23;20009;-54
2022/03/01 08:32:54;;;;;;;8.23;5.75;;;;;;;13.24;51.97;102773.63;6174196;23;20005;-55
2022/03/01 08:35:20;;;;;;;7.60;5.57;;;;;;;13.25;51.77;102771.81;6174861;23;20052;-56
2022/03/01 08:37:46;;;;;;;8.52;5.97;;;;;;;13.25;51.96;102769.13;6174174;23;20436;-55
2022/03/01 08:40:12;;;;;;;6.32;5.00;;;;;;;13.24;52.04;102765.59;6173729;23;20092;-56
2022/03/01 08:42:38;;;;;;;6.30;4.82;;;;;;;13.25;51.87;102770.03;6174732;23;20013;-57
2022/03/01 08:45:05;;;;;;;5.95;5.25;;;;;;;13.26;51.71;102770.88;6175097;23;20067;-57
2022/03/01 08:47:30;;;;;;;7.97;5.78;;;;;;;13.26;52.07;102771.75;6174378;23;20009;-58
2022/03/01 08:49:56;;;;;;;9.05;6.32;;;;;;;13.27;51.87;102772.63;6175134;23;20360;-56
2022/03/01 08:52:21;;;;;;;8.10;5.72;;;;;;;13.27;51.76;102770.81;6174798;23;20005;-58
2022/03/01 08:54:46;;;;;;;7.07;5.78;;;;;;;13.28;51.81;102777.91;6175983;23;20009;-57
2022/03/01 08:57:12;;;;;;;7.35;5.65;;;;;;;13.28;51.80;102788.59;6174594;23;20033;-57
2022/03/01 08:59:37;;;;;;;5.95;5.25;;;;;;;13.29;52.09;102787.69;6175169;23;20286;-58
2022/03/01 09:02:04;;;;;;;8.05;5.50;;;;;;;13.29;51.73;102793.03;6174552;23;20035;-58
2022/03/01 09:04:29;;;;;;;9.45;5.80;;;;;;;13.30;51.92;102794.78;6174626;23;20009;-56
2022/03/01 09:06:55;;;;;;;8.63;5.55;;;;;;;13.31;51.78;102793.00;6174706;23;20072;-57
2022/03/01 09:09:20;;;;;;;12.35;5.53;;;;;;;13.32;52.00;102793.84;6149387;23;20076;-58
2022/03/01 09:11:45;;;;;;;6.70;5.38;;;;;;;13.32;51.91;102805.41;6174155;23;20015;-58
2022/03/01 09:14:11;;;;;;;8.57;5.10;;;;;;;13.34;51.90;102810.72;6173185;23;20071;-58
2022/03/01 09:16:38;;;;;;;9.43;5.60;;;;;;;13.35;51.44;102807.97;6173575;23;20034;-58
2022/03/01 09:19:04;;;;;;;5.88;4.68;;;;;;;13.37;51.56;102798.06;6173407;23;20041;-58
2022/03/01 09:21:29;;;;;;;7.88;4.63;;;;;;;13.41;51.13;102793.44;6174114;23;20005;-57
2022/03/01 09:23:54;;;;;;;5.47;4.68;;;;;;;13.43;51.00;102787.09;6172829;23;20419;-58
2022/03/01 09:26:19;;;;;;;7.30;5.57;;;;;;;13.46;51.43;102786.06;6173913;23;20443;-58
2022/03/01 09:28:45;;;;;;;8.20;4.78;;;;;;;13.47;51.41;102787.81;6172679;23;20036;-57
2022/03/01 09:31:10;;;;;;;5.40;4.63;;;;;;;13.49;51.48;102788.63;6173163;23;20072;-58
2022/03/01 09:33:42;;;;;;;7.97;4.55;;;;;;;13.50;51.26;102787.69;6174517;23;20306;-58
2022/03/01 09:36:07;;;;;;;;;;;;;;;13.59;51.71;102794.41;6176794;23;20009;-57
2022/03/01 09:38:33;;;;;;;8.45;4.57;;;;;;;13.55;51.17;102788.34;6176418;23;19971;-58
2022/03/01 09:40:58;;;;;;;6.88;4.72;;;;;;;13.54;51.48;102783.94;6176122;23;20382;-58
2022/03/01 09:43:24;;;;;;;8.85;5.22;;;;;;;13.55;51.75;102784.78;6175954;23;20021;-58
2022/03/01 09:45:49;;;;;;;6.95;4.43;;;;;;;13.54;52.30;102791.97;6177148;23;20005;-57
2022/03/01 09:48:15;;;;;;;8.45;4.85;;;;;;;13.54;51.79;102793.78;6176018;23;20005;-58
2022/03/01 09:50:40;;;;;;;7.45;4.82;;;;;;;13.55;51.92;102793.69;6176932;23;20009;-58
2022/03/01 09:53:06;;;;;;;5.38;4.55;;;;;;;13.55;51.67;102796.34;6176723;23;20309;-58
2022/03/01 09:55:32;;;;;;;4.63;4.13;;;;;;;13.54;51.72;102802.66;6176339;23;20080;-58
2022/03/01 09:57:57;;;;;;;7.15;4.25;;;;;;;13.56;51.93;102800.78;6176111;23;20071;-56
2022/03/01 10:00:23;;;;;;;5.90;4.53;;;;;;;13.55;51.75;102806.19;6176227;23;20001;-58
2022/03/01 10:02:54;;;;;;;7.05;4.93;;;;;;;13.56;51.33;102806.16;6176761;23;20001;-58
2022/03/01 10:05:37;;;;;;;6.68;4.60;;;;;;;13.57;51.77;102805.19;6176972;23;20019;-57
2022/03/01 10:08:21;;;;;;;5.15;4.40;;;;;;;13.58;51.89;102801.59;6175608;23;20035;-57
2022/03/01 10:10:49;;;;;;;6.82;4.53;;;;;;;13.56;52.15;102803.47;6176938;23;20067;-58
2022/03/01 10:13:20;;;;;;;5.78;4.88;;;;;;;13.56;51.52;102808.81;6176256;23;20397;-56
2022/03/01 10:15:47;;;;;;;6.28;4.60;;;;;;;13.56;52.14;102808.81;6176591;23;20016;-57
2022/03/01 10:18:15;;;;;;;6.75;4.03;;;;;;;13.57;51.59;102815.88;6175747;23;20019;-58
2022/03/01 10:20:44;;;;;;;8.45;4.72;;;;;;;13.57;51.67;102812.34;6175907;23;20001;-58
2022/03/01 10:23:11;;;;;;;7.50;5.30;;;;;;;13.56;51.68;102806.16;6176296;23;20033;-58
2022/03/01 10:25:39;;;;;;;6.07;4.40;;;;;;;13.58;51.87;102806.94;6176007;23;20067;-58
2022/03/01 10:28:06;;;;;;;6.78;4.30;;;;;;;13.57;51.88;102801.66;6175888;23;20039;-58
2022/03/01 10:30:33;;;;;;;6.20;4.60;;;;;;;13.57;52.24;102791.81;6176325;23;20000;-57
2022/03/01 10:33:10;;;;;;;5.90;4.47;;;;;;;13.58;51.58;102790.88;6175718;23;20009;-57
2022/03/01 10:35:43;;;;;;;6.32;4.57;;;;;;;13.58;51.34;102790.03;6176290;23;20001;-58
2022/03/01 10:38:10;;;;;;;4.90;4.40;;;;;;;13.59;52.01;102791.75;6176189;23;20316;-56
2022/03/01 10:40:38;;;;;;;7.32;5.30;;;;;;;13.59;52.03;102794.41;6176102;23;20009;-58
2022/03/01 10:43:07;;;;;;;6.72;4.97;;;;;;;13.59;51.62;102787.25;6175514;23;20473;-58
2022/03/01 10:45:51;;;;;;;5.18;4.32;;;;;;;13.63;51.48;102788.88;6175464;23;20067;-58
2022/03/01 10:48:28;;;;;;;5.95;4.35;;;;;;;13.63;51.77;102786.19;6176164;23;20009;-57
2022/03/01 10:51:03;;;;;;;5.05;4.15;;;;;;;13.63;51.31;102786.19;6175872;23;20307;-57
2022/03/01 10:53:38;;;;;;;4.70;4.00;;;;;;;13.65;51.65;102799.47;6175868;23;20385;-57
2022/03/01 10:56:07;;;;;;;6.10;4.40;;;;;;;13.66;51.54;102799.41;6175453;23;20001;-58
2022/03/01 10:58:35;;;;;;;5.82;4.70;;;;;;;13.66;51.45;102804.78;6176090;23;20001;-58
2022/03/01 11:01:00;;;;;;;5.55;4.30;;;;;;;13.68;51.14;102799.34;6175916;23;20019;-57
2022/03/01 11:03:26;;;;;;;5.68;4.40;;;;;;;13.68;51.32;102808.25;6175423;23;20005;-58
2022/03/01 11:05:54;;;;;;;5.22;4.38;;;;;;;13.71;51.37;102806.38;6176304;23;20009;-57
2022/03/01 11:08:30;;;;;;;6.20;4.55;;;;;;;13.69;50.99;102807.31;6150815;23;20096;-58
2022/03/01 11:10:57;;;;;;;5.25;4.03;;;;;;;13.70;51.40;102800.16;6175115;23;20005;-58
2022/03/01 11:13:25;;;;;;;5.90;4.22;;;;;;;13.71;51.29;102809.03;6176020;23;20472;-58
2022/03/01 11:16:15;;;;;;;5.57;4.32;;;;;;;13.71;51.27;102801.00;6176637;23;20091;-58
2022/03/01 11:18:53;;;;;;;5.95;4.35;;;;;;;13.73;51.59;102799.13;6176190;23;20019;-58